Terminal Aerodrome Forecast
Issued by NWS Charleston, WV

Current Version | Previous Version | Graphics & Text | Print | Product List | Glossary On
Versions: 1 2 3 4 5 6 7 8 9 10 11 12 13 14 15 16 17 18 19 20 21 22 23 24 25 26 27 28 29 30 31 32
000
FTUS41 KRLX 250532
TAFPKB
TAF
KPKB 250532Z 2506/2606 29005KT P6SM SCT035
     FM250800 VRB03KT 5SM BR SCT001
     FM250900 VRB03KT 1/4SM FG VV001
     FM251300 VRB03KT P6SM BKN015
     FM251400 01003KT P6SM BKN025
     FM251800 02003KT P6SM SCT030=

USA.gov is the U.S. government's official web portal to all federal, state and local government web resources and services.